This is the latest recevied weather packets stored in our database for station/object W8CEN. If no packets are shown the sender has not sent any weather packets the latest 1 day(s).
| Time | Temp. | Humidity | Pressure | Rain* | Wind** | Luminosity | Snow |
|---|---|---|---|---|---|---|---|
| 1778029825 | 9.44° C | 97% | 987.3 hPa | 0 mm | 0.45 m/s, 255° | 0 W/m² | - |
| 1778029525 | 9.44° C | 97% | 987.1 hPa | 1.27 mm | 0 m/s | 0 W/m² | - |
| 1778029221 | 9.44° C | 96% | 987.2 hPa | 1.27 mm | 0 m/s | 0 W/m² | - |
| 1778028918 | 9.44° C | 96% | 987.1 hPa | 0 mm | 0 m/s | 0 W/m² | - |
| 1778028613 | 9.44° C | 96% | 987.2 hPa | 1.78 mm | 0 m/s | 0 W/m² | - |
| 1778028311 | 9.44° C | 96% | 987.3 hPa | 3.05 mm | 0 m/s | 0 W/m² | - |
| 1778028008 | 9.44° C | 96% | 987.5 hPa | 1.27 mm | 0 m/s | 0 W/m² | - |
| 1778027704 | 9.44° C | 96% | 987.2 hPa | 1.78 mm | 0 m/s | 1 W/m² | - |
| 1778027400 | 9.44° C | 96% | 987.6 hPa | 3.05 mm | 0 m/s | 1 W/m² | - |
| 1778027096 | 9.44° C | 95% | 987.3 hPa | 3.05 mm | 0 m/s | 1 W/m² | - |
| 1778026792 | 9.44° C | 95% | 987.3 hPa | 3.05 mm | 0 m/s | 2 W/m² | - |
| 1778026489 | 9.44° C | 95% | 987.3 hPa | 3.05 mm | 0.45 m/s, 250° | 3 W/m² | - |
| 1778026186 | 9.44° C | 95% | 987.1 hPa | 3.56 mm | 0.45 m/s, 243° | 4 W/m² | - |
| 1778025883 | 9.44° C | 95% | 987.5 hPa | 4.83 mm | 0 m/s | 6 W/m² | - |
| 1778025580 | 9.44° C | 95% | 987.1 hPa | 3.05 mm | 0.45 m/s, 261° | 5 W/m² | - |
| 1778025279 | 9.44° C | 94% | 987.2 hPa | 1.78 mm | 0.45 m/s, 285° | 7 W/m² | - |
| 1778024975 | 9.44° C | 94% | 987.2 hPa | 1.27 mm | 0.45 m/s, 261° | 9 W/m² | - |
| 1778024673 | 9.44° C | 94% | 987.1 hPa | 3.05 mm | 0.45 m/s, 268° | 11 W/m² | - |
| 1778024369 | 9.44° C | 94% | 986.8 hPa | 1.78 mm | 0.45 m/s, 274° | 15 W/m² | - |
| 1778024067 | 10° C | 94% | 986.8 hPa | 1.78 mm | 0.45 m/s, 246° | 16 W/m² | - |
| 1778023764 | 10° C | 94% | 987.2 hPa | 1.27 mm | 0.45 m/s, 239° | 13 W/m² | - |
| 1778023462 | 10° C | 94% | 987.1 hPa | 1.27 mm | 0 m/s | 11 W/m² | - |
| 1778023158 | 10° C | 94% | 986.9 hPa | 0 mm | 0 m/s | 14 W/m² | - |
| 1778022856 | 10° C | 94% | 986.9 hPa | 0 mm | 0 m/s | 25 W/m² | - |
| 1778022554 | 10° C | 94% | 986.9 hPa | 1.78 mm | 0 m/s | 26 W/m² | - |
* Rain latest hour (hover to see other rain measurements)
** Current wind speed in m/s (hover to see current wind gust speed)